createdAt,value
2018-01-03T00:00:17.207Z,5.68
2018-01-03T00:01:26.133Z,5.71
2018-01-03T00:02:34.958Z,5.76
2018-01-03T00:03:43.785Z,5.67
2018-01-03T00:04:52.612Z,5.78
2018-01-03T00:06:01.444Z,5.78
2018-01-03T00:07:10.374Z,5.78
2018-01-03T00:08:19.196Z,5.83
2018-01-03T00:09:28.023Z,5.81
2018-01-03T00:10:36.850Z,5.86
2018-01-03T00:11:45.673Z,5.82
2018-01-03T00:12:54.548Z,5.89
2018-01-03T00:14:03.374Z,5.79
2018-01-03T00:15:12.199Z,5.76
2018-01-03T00:16:21.297Z,5.89
2018-01-03T00:17:30.123Z,5.86
2018-01-03T00:18:38.952Z,5.89
2018-01-03T00:19:47.777Z,5.93
2018-01-03T00:20:56.603Z,5.86
2018-01-03T00:22:05.430Z,5.81
2018-01-03T00:23:14.257Z,5.81
2018-01-03T00:24:23.383Z,5.76
2018-01-03T00:25:32.210Z,5.83
2018-01-03T00:26:41.037Z,5.79
2018-01-03T00:27:49.860Z,5.89
2018-01-03T00:28:58.685Z,5.97
2018-01-03T00:30:07.711Z,5.9
2018-01-03T00:31:16.810Z,5.91
2018-01-03T00:32:25.638Z,5.86
2018-01-03T00:33:34.468Z,5.96
2018-01-03T00:34:43.291Z,5.91
2018-01-03T00:35:52.217Z,5.99
2018-01-03T00:37:01.044Z,5.9
2018-01-03T00:38:09.873Z,5.91
2018-01-03T00:39:18.970Z,5.93
2018-01-03T00:40:27.799Z,5.86
2018-01-03T00:41:36.620Z,5.94
2018-01-03T00:42:45.446Z,5.94
2018-01-03T00:43:54.271Z,5.93
2018-01-03T00:45:03.099Z,6.03
2018-01-03T00:46:11.925Z,6.06
2018-01-03T00:47:20.800Z,5.93
2018-01-03T00:48:29.905Z,5.99
2018-01-03T00:49:38.731Z,5.93
2018-01-03T00:50:47.557Z,6.04
2018-01-03T00:51:56.385Z,6.06
2018-01-03T00:53:05.309Z,5.96
2018-01-03T00:54:14.137Z,6
2018-01-03T00:55:23.246Z,5.97
2018-01-03T00:56:32.070Z,5.94
2018-01-03T00:57:40.898Z,5.97
2018-01-03T00:58:49.876Z,6
2018-01-03T00:59:58.703Z,6
2018-01-03T01:01:07.525Z,6.09
2018-01-03T01:02:16.350Z,6
2018-01-03T01:03:25.179Z,5.97
2018-01-03T01:04:34.105Z,5.94
2018-01-03T01:05:42.929Z,5.99
2018-01-03T01:06:51.753Z,6.01
2018-01-03T01:08:00.581Z,6.03
2018-01-03T01:09:09.406Z,6.06
2018-01-03T01:10:18.231Z,6
2018-01-03T01:11:27.055Z,6.09
2018-01-03T01:12:35.881Z,5.97
2018-01-03T01:13:44.712Z,6
2018-01-03T01:14:53.812Z,6.14
2018-01-03T01:16:02.737Z,6.04
2018-01-03T01:17:11.560Z,6.04
2018-01-03T01:18:20.386Z,6.14
2018-01-03T01:19:29.210Z,6.12
2018-01-03T01:20:38.037Z,6.14
2018-01-03T01:21:47.438Z,6
2018-01-03T01:22:56.265Z,6.06
2018-01-03T01:24:05.090Z,6.04
2018-01-03T01:25:13.916Z,6.12
2018-01-03T01:26:23.017Z,6.12
2018-01-03T01:27:31.842Z,6.14
2018-01-03T01:28:40.669Z,6.17
2018-01-03T01:29:49.496Z,6.12
2018-01-03T01:30:58.320Z,6.11
2018-01-03T01:32:07.147Z,6.09
2018-01-03T01:33:16.269Z,6.12
2018-01-03T01:34:25.097Z,6.09
2018-01-03T01:35:33.921Z,6.15
2018-01-03T01:36:42.748Z,6.08
2018-01-03T01:37:51.850Z,6.09
2018-01-03T01:39:00.844Z,6.12
2018-01-03T01:40:09.949Z,6.12
2018-01-03T01:41:18.776Z,6.03
2018-01-03T01:42:27.601Z,6.11
2018-01-03T01:43:36.428Z,6.21
2018-01-03T01:44:45.302Z,6.28
2018-01-03T01:45:54.400Z,6.22
2018-01-03T01:47:03.226Z,6.22
2018-01-03T01:48:12.052Z,6.19
2018-01-03T01:49:20.884Z,6.21
2018-01-03T01:50:29.811Z,6.17
2018-01-03T01:51:38.635Z,6.27
2018-01-03T01:52:47.458Z,6.15
2018-01-03T01:53:56.284Z,6.22
2018-01-03T01:55:05.385Z,6.27
2018-01-03T01:56:14.411Z,6.18
2018-01-03T01:57:23.237Z,6.18
2018-01-03T01:58:32.061Z,6.33
2018-01-03T01:59:40.889Z,6.27
2018-01-03T02:00:49.714Z,6.21
2018-01-03T02:01:58.542Z,6.33
2018-01-03T02:03:07.365Z,6.3
2018-01-03T02:04:16.191Z,6.3
2018-01-03T02:05:25.018Z,6.34
2018-01-03T02:06:34.117Z,6.28
2018-01-03T02:07:43.243Z,6.25
2018-01-03T02:08:52.070Z,6.28
2018-01-03T02:10:00.899Z,6.36
2018-01-03T02:11:09.824Z,6.3
2018-01-03T02:12:18.648Z,6.34
2018-01-03T02:13:27.773Z,6.3
2018-01-03T02:14:36.600Z,6.31
2018-01-03T02:15:45.426Z,6.3
2018-01-03T02:16:54.526Z,6.34
2018-01-03T02:18:03.352Z,6.3
2018-01-03T02:19:12.276Z,6.38
2018-01-03T02:20:21.102Z,6.3
2018-01-03T02:21:30.204Z,6.38
2018-01-03T02:22:39.026Z,6.46
2018-01-03T02:23:47.852Z,6.49
2018-01-03T02:24:56.953Z,6.43
2018-01-03T02:26:05.777Z,6.48
2018-01-03T02:27:14.602Z,6.51
2018-01-03T02:28:23.430Z,6.48
2018-01-03T02:29:32.254Z,6.54
2018-01-03T02:30:41.232Z,6.49
2018-01-03T02:31:50.059Z,6.48
2018-01-03T02:32:58.883Z,6.51
2018-01-03T02:34:07.713Z,6.52
2018-01-03T02:35:16.540Z,6.49
2018-01-03T02:36:25.516Z,6.58
2018-01-03T02:37:34.357Z,6.46
2018-01-03T02:38:43.185Z,6.59
2018-01-03T02:39:52.013Z,6.52
2018-01-03T02:41:00.839Z,6.61
2018-01-03T02:42:09.963Z,6.62
2018-01-03T02:43:18.793Z,6.59
2018-01-03T02:44:27.623Z,6.64
2018-01-03T02:45:36.441Z,6.55
2018-01-03T02:46:45.265Z,6.64
2018-01-03T02:47:54.141Z,6.85
2018-01-03T02:49:02.967Z,6.66
2018-01-03T02:50:11.792Z,6.7
2018-01-03T02:51:20.617Z,6.73
2018-01-03T02:52:29.442Z,6.66
2018-01-03T02:53:38.270Z,6.67
2018-01-03T02:54:47.096Z,6.67
2018-01-03T02:55:55.922Z,6.73
2018-01-03T02:57:04.744Z,6.77
2018-01-03T02:58:13.580Z,6.71
2018-01-03T02:59:22.800Z,6.73
2018-01-03T03:00:31.898Z,6.77
2018-01-03T03:01:40.722Z,6.79
2018-01-03T03:02:49.551Z,6.84
2018-01-03T03:03:58.378Z,6.77
2018-01-03T03:05:07.410Z,6.67
2018-01-03T03:06:16.234Z,6.74
2018-01-03T03:07:25.059Z,6.84
2018-01-03T03:08:33.887Z,6.74
2018-01-03T03:09:42.711Z,6.67
2018-01-03T03:10:51.597Z,6.71
2018-01-03T03:12:00.419Z,6.66
2018-01-03T03:13:09.243Z,6.71
2018-01-03T03:14:18.073Z,6.77
2018-01-03T03:15:26.900Z,6.77
2018-01-03T03:16:36.299Z,6.73
2018-01-03T03:17:45.126Z,6.77
2018-01-03T03:18:53.952Z,6.79
2018-01-03T03:20:02.780Z,6.81
2018-01-03T03:21:11.609Z,6.87
2018-01-03T03:22:20.485Z,6.77
2018-01-03T03:23:29.310Z,6.74
2018-01-03T03:24:38.137Z,6.79
2018-01-03T03:25:46.966Z,6.73
2018-01-03T03:26:55.791Z,6.77
2018-01-03T03:28:04.617Z,6.79
2018-01-03T03:29:13.444Z,6.79
2018-01-03T03:30:22.269Z,6.77
2018-01-03T03:31:31.373Z,6.74
2018-01-03T03:32:40.197Z,6.73
2018-01-03T03:33:49.126Z,6.73
2018-01-03T03:34:57.952Z,6.73
2018-01-03T03:36:06.778Z,6.79
2018-01-03T03:37:15.605Z,6.84
2018-01-03T03:38:24.429Z,6.88
2018-01-03T03:39:33.452Z,6.8
2018-01-03T03:40:42.279Z,6.85
2018-01-03T03:41:51.106Z,6.87
2018-01-03T03:42:59.930Z,6.76
2018-01-03T03:44:08.757Z,6.81
2018-01-03T03:45:17.734Z,6.76
2018-01-03T03:46:26.563Z,6.77
2018-01-03T03:47:35.392Z,6.77
2018-01-03T03:48:44.215Z,6.88
2018-01-03T03:49:53.043Z,6.92
2018-01-03T03:51:02.218Z,6.8
2018-01-03T03:52:11.045Z,6.85
2018-01-03T03:53:19.870Z,6.88
2018-01-03T03:54:28.696Z,6.81
2018-01-03T03:55:37.794Z,6.85
2018-01-03T03:56:46.821Z,6.87
2018-01-03T03:57:55.648Z,6.91
2018-01-03T03:59:04.475Z,6.92
2018-01-03T04:00:13.299Z,6.95
2018-01-03T04:01:22.127Z,6.88
2018-01-03T04:02:31.054Z,6.89
2018-01-03T04:03:39.880Z,6.85
2018-01-03T04:04:48.707Z,6.87
2018-01-03T04:05:57.533Z,6.91
2018-01-03T04:07:06.358Z,6.81
2018-01-03T04:08:15.285Z,6.88
2018-01-03T04:09:24.113Z,6.87
2018-01-03T04:10:32.937Z,6.89
2018-01-03T04:11:41.765Z,7.02
2018-01-03T04:12:50.589Z,6.84
2018-01-03T04:13:59.566Z,6.94
2018-01-03T04:15:08.392Z,6.99
2018-01-03T04:16:17.223Z,6.89
2018-01-03T04:17:26.050Z,6.88
2018-01-03T04:18:34.874Z,6.94
2018-01-03T04:19:44.002Z,6.89
2018-01-03T04:20:52.827Z,7.02
2018-01-03T04:22:01.930Z,7.02
2018-01-03T04:23:10.756Z,6.89
2018-01-03T04:24:19.580Z,6.91
2018-01-03T04:25:28.405Z,7.02
2018-01-03T04:26:37.232Z,6.99
2018-01-03T04:27:46.058Z,6.98
2018-01-03T04:28:54.884Z,6.99
2018-01-03T04:30:03.709Z,6.91
2018-01-03T04:31:12.837Z,7.03
2018-01-03T04:32:21.662Z,7.03
2018-01-03T04:33:30.488Z,6.97
2018-01-03T04:34:39.865Z,7.02
2018-01-03T04:35:48.700Z,6.99
2018-01-03T04:36:57.572Z,6.99
2018-01-03T04:38:06.398Z,6.91
2018-01-03T04:39:15.503Z,7.05
2018-01-03T04:40:24.323Z,7.06
2018-01-03T04:41:33.154Z,7.03
2018-01-03T04:42:42.501Z,7.1
2018-01-03T04:43:51.326Z,7.09
2018-01-03T04:45:00.150Z,7.15
2018-01-03T04:46:09.426Z,7.25
2018-01-03T04:47:18.253Z,7.2
2018-01-03T04:48:27.180Z,7.21
2018-01-03T04:49:36.286Z,7.17
2018-01-03T04:50:45.111Z,7.17
2018-01-03T04:51:53.936Z,7.2
2018-01-03T04:53:02.763Z,7.32
2018-01-03T04:54:11.591Z,7.31
2018-01-03T04:55:20.416Z,7.28
2018-01-03T04:56:29.241Z,7.53
2018-01-03T04:57:38.065Z,7.27
2018-01-03T04:58:46.894Z,7.4
2018-01-03T04:59:55.868Z,7.43
2018-01-03T05:01:04.695Z,7.32
2018-01-03T05:02:13.799Z,7.39
2018-01-03T05:03:22.622Z,7.28
2018-01-03T05:04:31.723Z,7.42
2018-01-03T05:05:40.554Z,7.48
2018-01-03T05:06:49.377Z,7.39
2018-01-03T05:07:58.204Z,7.43
2018-01-03T05:09:07.032Z,7.32
2018-01-03T05:10:15.859Z,7.46
2018-01-03T05:11:24.790Z,7.43
2018-01-03T05:12:33.613Z,7.48
2018-01-03T05:13:42.444Z,7.35
2018-01-03T05:14:51.266Z,7.43
2018-01-03T05:16:00.092Z,7.48
2018-01-03T05:17:09.017Z,7.46
2018-01-03T05:18:17.842Z,7.52
2018-01-03T05:19:26.946Z,7.5
2018-01-03T05:20:35.771Z,7.55
2018-01-03T05:21:44.598Z,7.6
2018-01-03T05:22:53.574Z,7.55
2018-01-03T05:24:02.401Z,7.63
2018-01-03T05:25:11.226Z,7.68
2018-01-03T05:26:20.054Z,7.79
2018-01-03T05:27:28.879Z,7.77
2018-01-03T05:28:37.856Z,7.77
2018-01-03T05:29:46.685Z,7.79
2018-01-03T05:30:55.508Z,7.82
2018-01-03T05:32:04.336Z,7.82
2018-01-03T05:33:13.158Z,7.87
2018-01-03T05:34:22.037Z,7.9
2018-01-03T05:35:31.137Z,7.92
2018-01-03T05:36:39.962Z,7.89
2018-01-03T05:37:48.791Z,8.02
2018-01-03T05:38:57.619Z,7.95
2018-01-03T05:40:06.596Z,8.08
2018-01-03T05:41:15.419Z,8.22
2018-01-03T05:42:24.247Z,8.23
2018-01-03T05:43:33.075Z,8.33
2018-01-03T05:44:41.900Z,8.4
2018-01-03T05:45:50.829Z,8.41
2018-01-03T05:46:59.658Z,8.44
2018-01-03T05:48:08.484Z,8.44
2018-01-03T05:49:17.583Z,8.34
2018-01-03T05:50:26.410Z,8.44
2018-01-03T05:51:35.489Z,8.5
2018-01-03T05:52:44.316Z,8.47
2018-01-03T05:53:53.143Z,8.47
2018-01-03T05:55:01.972Z,8.52
2018-01-03T05:56:10.800Z,8.48
2018-01-03T05:57:19.676Z,8.5
2018-01-03T05:58:28.505Z,8.45
2018-01-03T05:59:37.328Z,8.43
2018-01-03T06:00:46.156Z,8.47
2018-01-03T06:01:54.987Z,8.48
2018-01-03T06:03:03.868Z,8.48
2018-01-03T06:04:12.694Z,8.56
2018-01-03T06:05:21.521Z,8.47
2018-01-03T06:06:30.346Z,8.52
2018-01-03T06:07:39.175Z,8.59
2018-01-03T06:08:48.155Z,8.55
2018-01-03T06:09:56.982Z,8.55
2018-01-03T06:11:05.809Z,8.66
2018-01-03T06:12:14.636Z,8.61
2018-01-03T06:13:23.464Z,8.65
2018-01-03T06:14:32.595Z,8.59
2018-01-03T06:15:41.423Z,8.58
2018-01-03T06:16:50.252Z,8.62
2018-01-03T06:17:59.092Z,8.59
2018-01-03T06:19:07.912Z,8.68
2018-01-03T06:20:16.738Z,8.65
2018-01-03T06:21:25.566Z,8.77
2018-01-03T06:22:34.667Z,8.74
2018-01-03T06:23:43.493Z,8.77
2018-01-03T06:24:52.323Z,8.81
2018-01-03T06:26:01.200Z,8.79
2018-01-03T06:27:10.026Z,8.77
2018-01-03T06:28:18.865Z,8.73
2018-01-03T06:29:27.692Z,8.74
2018-01-03T06:30:36.519Z,8.73
2018-01-03T06:31:45.448Z,8.77
2018-01-03T06:32:54.277Z,8.77
2018-01-03T06:34:03.109Z,8.74
2018-01-03T06:35:11.935Z,8.73
2018-01-03T06:36:20.762Z,8.71
2018-01-03T06:37:29.692Z,8.7
2018-01-03T06:38:38.521Z,8.71
2018-01-03T06:39:47.623Z,8.7
2018-01-03T06:40:56.451Z,8.63
2018-01-03T06:42:05.280Z,8.68
2018-01-03T06:43:14.158Z,8.73
2018-01-03T06:44:22.988Z,8.65
2018-01-03T06:45:31.818Z,8.7
2018-01-03T06:46:40.922Z,8.68
2018-01-03T06:47:49.749Z,8.61
2018-01-03T06:48:58.778Z,8.71
2018-01-03T06:50:07.611Z,8.65
2018-01-03T06:51:16.442Z,8.62
2018-01-03T06:52:25.263Z,8.55
2018-01-03T06:53:34.093Z,8.55
2018-01-03T06:54:42.972Z,8.56
2018-01-03T06:55:51.803Z,8.66
2018-01-03T06:57:00.636Z,8.63
2018-01-03T06:58:09.461Z,8.63
2018-01-03T06:59:18.287Z,8.63
2018-01-03T07:00:27.218Z,8.59
2018-01-03T07:01:36.048Z,8.58
2018-01-03T07:02:45.154Z,8.62
2018-01-03T07:03:53.982Z,8.59
2018-01-03T07:05:02.811Z,8.61
2018-01-03T07:06:11.741Z,8.58
2018-01-03T07:07:20.571Z,8.61
2018-01-03T07:08:29.403Z,8.53
2018-01-03T07:09:38.231Z,8.53
2018-01-03T07:10:47.333Z,8.56
2018-01-03T07:11:56.588Z,8.62
2018-01-03T07:13:05.419Z,8.62
2018-01-03T07:14:14.250Z,8.62
2018-01-03T07:15:23.079Z,8.62
2018-01-03T07:16:31.906Z,8.53
2018-01-03T07:17:40.837Z,8.53
2018-01-03T07:18:49.667Z,8.53
2018-01-03T07:19:58.499Z,8.48
2018-01-03T07:21:07.324Z,8.58
2018-01-03T07:22:16.153Z,8.63
2018-01-03T07:23:25.180Z,8.59
2018-01-03T07:24:34.009Z,8.56
2018-01-03T07:25:42.837Z,8.58
2018-01-03T07:26:51.664Z,8.48
2018-01-03T07:28:00.498Z,8.45
2018-01-03T07:29:09.626Z,8.59
2018-01-03T07:30:18.455Z,8.44
2018-01-03T07:31:27.283Z,8.44
2018-01-03T07:32:36.130Z,8.45
2018-01-03T07:33:45.228Z,8.58
2018-01-03T07:34:54.057Z,8.61
2018-01-03T07:36:02.885Z,8.45
2018-01-03T07:37:11.715Z,8.47
2018-01-03T07:38:20.547Z,8.5
2018-01-03T07:39:29.373Z,8.38
2018-01-03T07:40:38.481Z,8.44
2018-01-03T07:41:47.309Z,8.43
2018-01-03T07:42:56.414Z,8.37
2018-01-03T07:44:05.243Z,8.36
2018-01-03T07:45:14.471Z,8.3
2018-01-03T07:46:23.347Z,8.26
2018-01-03T07:47:32.176Z,8.3
2018-01-03T07:48:41.004Z,8.33
2018-01-03T07:49:49.832Z,8.22
2018-01-03T07:50:58.660Z,8.16
2018-01-03T07:52:07.589Z,8.18
2018-01-03T07:53:16.416Z,8.11
2018-01-03T07:54:25.294Z,8.18
2018-01-03T07:55:34.123Z,8.19
2018-01-03T07:56:42.952Z,8.08
2018-01-03T07:57:51.830Z,8.15
2018-01-03T07:59:00.659Z,8.16
2018-01-03T08:00:09.489Z,8.15
2018-01-03T08:01:18.316Z,8.3
2018-01-03T08:02:27.143Z,8.23
2018-01-03T08:03:36.022Z,8.15
2018-01-03T08:04:44.952Z,8.15
2018-01-03T08:05:53.842Z,8.08
2018-01-03T08:07:02.673Z,8.11
2018-01-03T08:08:11.772Z,8.1
2018-01-03T08:09:20.973Z,8.16
2018-01-03T08:10:29.803Z,8.18
2018-01-03T08:11:38.634Z,8.2
2018-01-03T08:12:47.463Z,8.22
2018-01-03T08:13:56.291Z,8.22
2018-01-03T08:15:05.221Z,8.2
2018-01-03T08:16:14.049Z,8.23
2018-01-03T08:17:22.877Z,8.23
2018-01-03T08:18:31.706Z,8.2
2018-01-03T08:19:40.533Z,8.16
2018-01-03T08:20:49.411Z,8.18
2018-01-03T08:21:58.339Z,8.16
2018-01-03T08:23:07.166Z,8.11
2018-01-03T08:24:15.995Z,8.15
2018-01-03T08:25:24.834Z,8.2
2018-01-03T08:26:33.814Z,8.16
2018-01-03T08:27:42.642Z,8.22
2018-01-03T08:28:51.470Z,8.2
2018-01-03T08:30:00.304Z,8.19
2018-01-03T08:31:09.129Z,8.22
2018-01-03T08:32:18.009Z,8.23
2018-01-03T08:33:26.835Z,8.28
2018-01-03T08:34:35.665Z,8.25
2018-01-03T08:35:44.493Z,8.29
2018-01-03T08:36:53.321Z,8.33
2018-01-03T08:38:02.301Z,8.28
2018-01-03T08:39:11.127Z,8.11
2018-01-03T08:40:19.955Z,7.87
2018-01-03T08:41:28.784Z,7.61
2018-01-03T08:42:37.613Z,7.58
2018-01-03T08:43:46.493Z,7.37
2018-01-03T08:44:55.344Z,7.13
2018-01-03T08:46:04.448Z,7.02
2018-01-03T08:47:13.275Z,7.03
2018-01-03T08:48:22.102Z,6.74
2018-01-03T08:49:31.030Z,6.76
2018-01-03T08:50:39.857Z,6.67
2018-01-03T08:51:48.683Z,6.4
2018-01-03T08:52:57.509Z,6.33
2018-01-03T08:54:06.341Z,6.25
2018-01-03T08:55:15.593Z,6.22
2018-01-03T08:56:24.422Z,6.22
2018-01-03T08:57:33.524Z,6.06
2018-01-03T08:58:42.349Z,6.06
2018-01-03T08:59:51.177Z,5.99
2018-01-03T09:01:00.152Z,6.14
2018-01-03T09:02:08.979Z,5.97
2018-01-03T09:03:18.083Z,5.89
2018-01-03T09:04:26.904Z,5.91
2018-01-03T09:05:35.731Z,5.71
2018-01-03T09:06:44.559Z,5.71
2018-01-03T09:07:53.382Z,5.72
2018-01-03T09:09:02.208Z,5.94
2018-01-03T09:10:11.034Z,5.75
2018-01-03T09:11:19.861Z,5.75
2018-01-03T09:12:28.735Z,5.81
2018-01-03T09:13:37.561Z,5.71
2018-01-03T09:14:46.388Z,5.9
2018-01-03T09:15:55.215Z,5.86
2018-01-03T09:17:04.310Z,5.71
2018-01-03T09:18:13.285Z,5.68
2018-01-03T09:19:22.111Z,5.86
2018-01-03T09:20:30.941Z,5.67
2018-01-03T09:21:40.040Z,5.75
2018-01-03T09:22:48.865Z,5.78
2018-01-03T09:23:57.741Z,5.74
2018-01-03T09:25:06.885Z,5.81
2018-01-03T09:26:15.709Z,5.79
2018-01-03T09:27:24.813Z,5.72
2018-01-03T09:28:33.639Z,5.76
2018-01-03T09:29:42.816Z,5.75
2018-01-03T09:30:51.641Z,5.75
2018-01-03T09:32:00.466Z,5.67
2018-01-03T09:33:09.293Z,5.71
2018-01-03T09:34:18.398Z,5.64
2018-01-03T09:35:27.418Z,5.67
2018-01-03T09:36:36.242Z,5.71
2018-01-03T09:37:45.069Z,5.78
2018-01-03T09:38:53.903Z,5.81
2018-01-03T09:40:02.729Z,5.79
2018-01-03T09:41:11.559Z,5.74
2018-01-03T09:42:20.385Z,5.86
2018-01-03T09:43:29.221Z,5.85
2018-01-03T09:44:38.047Z,5.94
2018-01-03T09:45:46.873Z,5.96
2018-01-03T09:46:56.147Z,5.83
2018-01-03T09:48:04.974Z,5.9
2018-01-03T09:49:13.800Z,5.89
2018-01-03T09:50:22.627Z,6
2018-01-03T09:51:31.452Z,6.11
2018-01-03T09:52:40.427Z,6.09
2018-01-03T09:53:49.285Z,6.06
2018-01-03T09:54:58.078Z,6.06
2018-01-03T09:56:06.905Z,6.01
2018-01-03T09:57:15.735Z,6.06
2018-01-03T09:58:24.887Z,6.22
2018-01-03T09:59:33.718Z,6.09
2018-01-03T10:00:42.542Z,6.08
2018-01-03T10:01:51.366Z,6.14
2018-01-03T10:03:00.466Z,6.12
2018-01-03T10:04:09.396Z,6.12
2018-01-03T10:05:18.223Z,6.08
2018-01-03T10:06:27.052Z,6.12
2018-01-03T10:07:35.880Z,6.19
2018-01-03T10:08:44.709Z,6.3
2018-01-03T10:09:53.534Z,6.22
2018-01-03T10:11:02.365Z,6.28
2018-01-03T10:12:11.192Z,6.28
2018-01-03T10:13:20.017Z,6.25
2018-01-03T10:14:28.843Z,6.27
2018-01-03T10:15:37.668Z,6.27
2018-01-03T10:16:46.499Z,6.28
2018-01-03T10:17:55.327Z,6.28
2018-01-03T10:19:04.152Z,6.21
2018-01-03T10:20:12.985Z,6.31
2018-01-03T10:21:21.822Z,6.21
2018-01-03T10:22:30.923Z,6.38
2018-01-03T10:23:39.756Z,6.28
2018-01-03T10:24:48.597Z,6.38
2018-01-03T10:25:57.424Z,6.34
2018-01-03T10:27:06.698Z,6.36
2018-01-03T10:28:15.507Z,6.4
2018-01-03T10:29:24.336Z,6.51
2018-01-03T10:30:33.166Z,6.37
2018-01-03T10:31:41.992Z,6.52
2018-01-03T10:32:50.922Z,6.37
2018-01-03T10:33:59.749Z,6.66
2018-01-03T10:35:08.577Z,6.51
2018-01-03T10:36:17.405Z,6.49
2018-01-03T10:37:26.232Z,6.51
2018-01-03T10:38:35.215Z,6.62
2018-01-03T10:39:44.037Z,6.56
2018-01-03T10:40:52.865Z,6.62
2018-01-03T10:42:01.692Z,6.59
2018-01-03T10:43:10.519Z,6.64
2018-01-03T10:44:19.498Z,6.64
2018-01-03T10:45:28.325Z,6.61
2018-01-03T10:46:37.153Z,6.66
2018-01-03T10:47:45.977Z,6.58
2018-01-03T10:48:54.806Z,6.71
2018-01-03T10:50:03.737Z,6.67
2018-01-03T10:51:12.564Z,6.76
2018-01-03T10:52:21.390Z,6.69
2018-01-03T10:53:30.219Z,6.73
2018-01-03T10:54:39.323Z,6.61
2018-01-03T10:55:48.452Z,6.71
2018-01-03T10:56:57.276Z,6.66
2018-01-03T10:58:06.102Z,6.81
2018-01-03T10:59:14.931Z,6.77
2018-01-03T11:00:23.760Z,6.79
2018-01-03T11:01:32.739Z,6.77
2018-01-03T11:02:41.567Z,6.81
2018-01-03T11:03:50.395Z,6.87
2018-01-03T11:04:59.248Z,6.87
2018-01-03T11:06:08.049Z,6.74
2018-01-03T11:07:17.177Z,6.88
2018-01-03T11:08:26.004Z,6.92
2018-01-03T11:09:34.832Z,6.87
2018-01-03T11:10:43.660Z,6.88
2018-01-03T11:11:52.487Z,6.85
2018-01-03T11:13:01.614Z,6.94
2018-01-03T11:14:10.445Z,6.85
2018-01-03T11:15:19.276Z,6.88
2018-01-03T11:16:28.373Z,6.85
2018-01-03T11:17:37.203Z,6.92
2018-01-03T11:18:46.128Z,6.88
2018-01-03T11:19:54.956Z,6.99
2018-01-03T11:21:03.838Z,6.85
2018-01-03T11:22:12.942Z,6.88
2018-01-03T11:23:21.770Z,6.92
2018-01-03T11:24:30.798Z,6.8
2018-01-03T11:25:39.627Z,6.85
2018-01-03T11:26:48.454Z,6.81
2018-01-03T11:27:57.283Z,6.81
2018-01-03T11:29:06.114Z,6.89
2018-01-03T11:30:15.089Z,6.94
2018-01-03T11:31:23.917Z,6.81
2018-01-03T11:32:32.748Z,6.87
2018-01-03T11:33:41.592Z,6.89
2018-01-03T11:34:50.422Z,6.87
2018-01-03T11:35:59.351Z,6.89
2018-01-03T11:37:08.179Z,6.97
2018-01-03T11:38:17.007Z,6.88
2018-01-03T11:39:25.835Z,6.76
2018-01-03T11:40:34.696Z,6.81
2018-01-03T11:41:43.674Z,6.77
2018-01-03T11:42:53.052Z,6.73
2018-01-03T11:44:01.883Z,6.7
2018-01-03T11:45:10.711Z,6.61
2018-01-03T11:46:19.537Z,6.66
2018-01-03T11:47:28.465Z,6.62
2018-01-03T11:48:37.293Z,6.64
2018-01-03T11:49:46.120Z,6.52
2018-01-03T11:50:54.947Z,6.49
2018-01-03T11:52:03.772Z,6.56
2018-01-03T11:53:13.022Z,6.38
2018-01-03T11:54:21.850Z,6.48
2018-01-03T11:55:30.683Z,6.43
2018-01-03T11:56:39.515Z,6.41
2018-01-03T11:57:48.344Z,6.27
2018-01-03T11:58:57.273Z,6.3
2018-01-03T12:00:06.098Z,6.34
2018-01-03T12:01:14.926Z,6.18
2018-01-03T12:02:23.750Z,6.17
2018-01-03T12:03:32.577Z,6.11
2018-01-03T12:04:41.503Z,6.09
2018-01-03T12:05:50.335Z,6.09
2018-01-03T12:06:59.158Z,6.08
2018-01-03T12:08:08.262Z,5.97
2018-01-03T12:09:17.360Z,5.89
2018-01-03T12:10:26.336Z,5.96
2018-01-03T12:11:35.163Z,5.91
2018-01-03T12:12:43.990Z,5.93
2018-01-03T12:13:52.818Z,5.75
2018-01-03T12:15:01.920Z,5.82
2018-01-03T12:16:10.748Z,5.72
2018-01-03T12:17:19.847Z,5.72
2018-01-03T12:18:28.674Z,5.71
2018-01-03T12:19:37.502Z,5.81
2018-01-03T12:20:46.328Z,5.65
2018-01-03T12:21:55.306Z,5.76
2018-01-03T12:23:04.131Z,5.76
2018-01-03T12:24:12.957Z,5.68
2018-01-03T12:25:21.782Z,5.63
2018-01-03T12:26:30.610Z,5.65
2018-01-03T12:27:39.487Z,5.63
2018-01-03T12:28:48.309Z,5.67
2018-01-03T12:29:57.141Z,5.64
2018-01-03T12:31:05.967Z,5.67
2018-01-03T12:32:15.068Z,5.64
2018-01-03T12:33:23.994Z,5.61
2018-01-03T12:34:32.823Z,5.63
2018-01-03T12:35:41.649Z,5.61
2018-01-03T12:36:50.472Z,5.61
2018-01-03T12:37:59.298Z,5.68
2018-01-03T12:39:08.124Z,5.67
2018-01-03T12:40:16.949Z,5.58
2018-01-03T12:41:25.776Z,5.67
2018-01-03T12:42:34.602Z,5.68
2018-01-03T12:43:43.429Z,5.63
2018-01-03T12:44:52.257Z,5.6
2018-01-03T12:46:01.082Z,5.64
2018-01-03T12:47:09.907Z,5.6
2018-01-03T12:48:18.733Z,5.56
2018-01-03T12:49:27.570Z,5.6
2018-01-03T12:50:36.538Z,5.64
2018-01-03T12:51:45.365Z,5.53
2018-01-03T12:52:54.191Z,5.56
2018-01-03T12:54:03.016Z,5.51
2018-01-03T12:55:11.842Z,5.53
2018-01-03T12:56:20.717Z,5.43
2018-01-03T12:57:29.543Z,5.54
2018-01-03T12:58:38.371Z,5.51
2018-01-03T12:59:47.469Z,5.58
2018-01-03T13:00:56.295Z,5.53
2018-01-03T13:02:05.123Z,5.48
2018-01-03T13:03:13.949Z,5.53
2018-01-03T13:04:22.774Z,5.51
2018-01-03T13:05:31.875Z,5.61
2018-01-03T13:06:40.971Z,5.58
2018-01-03T13:07:50.223Z,5.51
2018-01-03T13:08:59.045Z,5.56
2018-01-03T13:10:07.873Z,5.53
2018-01-03T13:11:16.775Z,5.63
2018-01-03T13:12:25.601Z,5.6
2018-01-03T13:13:34.582Z,5.58
2018-01-03T13:14:43.403Z,5.61
2018-01-03T13:15:52.231Z,5.68
2018-01-03T13:17:01.053Z,5.65
2018-01-03T13:18:09.879Z,5.61
2018-01-03T13:19:18.853Z,5.65
2018-01-03T13:20:27.684Z,5.78
2018-01-03T13:21:36.784Z,5.67
2018-01-03T13:22:45.613Z,5.81
2018-01-03T13:23:54.488Z,5.86
2018-01-03T13:25:03.368Z,5.85
2018-01-03T13:26:12.194Z,5.96
2018-01-03T13:27:21.022Z,5.96
2018-01-03T13:28:29.946Z,6
2018-01-03T13:29:39.375Z,5.99
2018-01-03T13:30:48.642Z,6.06
2018-01-03T13:31:57.764Z,6.08
2018-01-03T13:33:06.590Z,6.14
2018-01-03T13:34:16.657Z,6.09
2018-01-03T13:35:25.482Z,6.04
2018-01-03T13:36:34.408Z,6.09
2018-01-03T13:37:43.233Z,6.12
2018-01-03T13:38:52.110Z,6.09
2018-01-03T13:40:00.938Z,6.15
2018-01-03T13:41:09.762Z,6.08
2018-01-03T13:42:18.637Z,6.19
2018-01-03T13:43:27.463Z,6.25
2018-01-03T13:44:36.314Z,6.14
2018-01-03T13:45:45.140Z,6.28
2018-01-03T13:46:53.965Z,6.28
2018-01-03T13:48:02.892Z,6.14
2018-01-03T13:49:11.718Z,6.34
2018-01-03T13:50:20.546Z,6.22
2018-01-03T13:51:29.371Z,6.19
2018-01-03T13:52:38.198Z,6.19
2018-01-03T13:53:47.451Z,6.22
2018-01-03T13:54:56.278Z,6.22
2018-01-03T13:56:05.104Z,6.25
2018-01-03T13:57:14.211Z,6.18
2018-01-03T13:58:23.043Z,6.25
2018-01-03T13:59:31.881Z,6.27
2018-01-03T14:00:40.742Z,6.28
2018-01-03T14:01:49.571Z,6.17
2018-01-03T14:02:58.688Z,6.25
2018-01-03T14:04:07.646Z,6.18
2018-01-03T14:05:16.469Z,6.28
2018-01-03T14:06:25.298Z,6.15
2018-01-03T14:07:34.125Z,6.08
2018-01-03T14:08:42.954Z,6.11
2018-01-03T14:09:51.780Z,6.12
2018-01-03T14:11:00.605Z,6.21
2018-01-03T14:12:09.445Z,6.25
2018-01-03T14:13:18.269Z,6.12
2018-01-03T14:14:27.099Z,6.18
2018-01-03T14:15:35.928Z,6.22
2018-01-03T14:16:44.756Z,6.09
2018-01-03T14:17:53.629Z,6.15
2018-01-03T14:19:02.488Z,6.11
2018-01-03T14:20:11.591Z,6.08
2018-01-03T14:21:20.560Z,6.14
2018-01-03T14:22:29.388Z,6.06
2018-01-03T14:23:38.224Z,6.06
2018-01-03T14:24:47.050Z,6.25
2018-01-03T14:25:55.878Z,6.03
2018-01-03T14:27:04.751Z,5.93
2018-01-03T14:28:13.578Z,5.96
2018-01-03T14:29:22.756Z,5.97
2018-01-03T14:30:31.582Z,5.99
2018-01-03T14:31:40.408Z,5.93
2018-01-03T14:32:49.386Z,6
2018-01-03T14:33:58.211Z,6.03
2018-01-03T14:35:07.038Z,5.93
2018-01-03T14:36:15.887Z,5.94
2018-01-03T14:37:24.709Z,5.93
2018-01-03T14:38:33.603Z,6.01
2018-01-03T14:39:42.415Z,6.03
2018-01-03T14:40:51.381Z,5.93
2018-01-03T14:42:01.046Z,5.89
2018-01-03T14:43:09.963Z,5.91
2018-01-03T14:44:19.578Z,6.01
2018-01-03T14:45:28.704Z,5.99
2018-01-03T14:46:37.644Z,6.03
2018-01-03T14:47:46.681Z,6.01
2018-01-03T14:48:56.189Z,5.96
2018-01-03T14:50:05.749Z,6
2018-01-03T14:51:14.641Z,5.97
2018-01-03T14:52:23.466Z,6.14
2018-01-03T14:53:32.294Z,6.12
2018-01-03T14:54:41.119Z,6.03
2018-01-03T14:55:50.179Z,6.06
2018-01-03T14:56:59.025Z,6.09
2018-01-03T14:58:08.124Z,6.09
2018-01-03T14:59:17.224Z,6.14
2018-01-03T15:00:26.049Z,6.06
2018-01-03T15:01:34.875Z,6.09
2018-01-03T15:02:43.702Z,6.09
2018-01-03T15:03:52.805Z,6.11
2018-01-03T15:05:01.635Z,6.06
2018-01-03T15:06:10.459Z,6.19
2018-01-03T15:07:19.288Z,6.03
2018-01-03T15:08:28.114Z,6.3
2018-01-03T15:09:36.939Z,6.04
2018-01-03T15:10:45.766Z,6.03
2018-01-03T15:11:54.592Z,6
2018-01-03T15:13:03.417Z,6
2018-01-03T15:14:12.240Z,5.93
2018-01-03T15:15:21.067Z,6.03
2018-01-03T15:16:29.893Z,5.96
2018-01-03T15:17:38.717Z,5.99
2018-01-03T15:18:47.542Z,6.06
2018-01-03T15:19:56.368Z,5.99